createdAt,value
2018-05-12T00:02:23.117Z,14.17
2018-05-12T00:04:50.635Z,14.67
2018-05-12T00:07:18.145Z,15.43
2018-05-12T00:09:46.418Z,14.60
2018-05-12T00:12:14.758Z,14.20
2018-05-12T00:14:42.273Z,15.17
2018-05-12T00:17:10.556Z,14.17
2018-05-12T00:19:38.834Z,14.90
2018-05-12T00:22:07.129Z,14.50
2018-05-12T00:24:34.642Z,14.87
2018-05-12T00:27:02.150Z,14.33
2018-05-12T00:29:29.694Z,14.30
2018-05-12T00:31:57.193Z,15.00
2018-05-12T00:34:24.822Z,16.17
2018-05-12T00:36:52.279Z,14.17
2018-05-12T00:39:19.783Z,14.23
2018-05-12T00:41:47.293Z,14.77
2018-05-12T00:44:14.821Z,15.33
2018-05-12T00:46:42.328Z,15.07
2018-05-12T00:49:10.609Z,14.13
2018-05-12T00:51:38.137Z,14.70
2018-05-12T00:54:06.409Z,14.70
2018-05-12T00:56:34.716Z,27.70
2018-05-12T00:59:02.255Z,14.63
2018-05-12T01:01:29.758Z,15.50
2018-05-12T01:03:57.273Z,14.60
2018-05-12T01:06:26.164Z,15.00
2018-05-12T01:08:53.673Z,13.83
2018-05-12T01:11:21.339Z,15.03
2018-05-12T01:13:48.794Z,16.50
2018-05-12T01:16:16.322Z,15.17
2018-05-12T01:18:43.842Z,16.53
2018-05-12T01:21:11.365Z,15.43
2018-05-12T01:23:39.668Z,15.27
2018-05-12T01:26:07.218Z,14.80
2018-05-12T01:28:34.739Z,14.77
2018-05-12T01:31:02.325Z,15.57
2018-05-12T01:33:29.855Z,15.00
2018-05-12T01:35:58.718Z,14.33
2018-05-12T01:38:26.338Z,15.03
2018-05-12T01:40:53.902Z,15.10
2018-05-12T01:43:22.354Z,15.80
2018-05-12T01:45:49.906Z,15.20
2018-05-12T01:48:18.288Z,15.63
2018-05-12T01:50:46.561Z,16.50
2018-05-12T01:53:14.094Z,16.63
2018-05-12T01:55:41.607Z,14.90
2018-05-12T01:58:09.113Z,14.97
2018-05-12T02:00:36.734Z,16.13
2018-05-12T02:03:04.283Z,15.07
2018-05-12T02:05:32.558Z,17.40
2018-05-12T02:08:00.103Z,16.53
2018-05-12T02:10:28.390Z,18.40
2018-05-12T02:12:55.950Z,17.13
2018-05-12T02:15:24.270Z,16.43
2018-05-12T02:17:51.805Z,16.47
2018-05-12T02:20:19.333Z,16.07
2018-05-12T02:22:46.857Z,16.50
2018-05-12T02:25:14.410Z,17.47
2018-05-12T02:27:42.214Z,18.03
2018-05-12T02:30:09.714Z,18.07
2018-05-12T02:32:38.065Z,16.13
2018-05-12T02:35:05.598Z,16.17
2018-05-12T02:37:33.139Z,15.87
2018-05-12T02:40:00.714Z,16.47
2018-05-12T02:42:28.209Z,15.63
2018-05-12T02:44:56.486Z,15.63
2018-05-12T02:47:24.025Z,15.57
2018-05-12T02:49:51.532Z,15.00
2018-05-12T02:52:19.074Z,16.00
2018-05-12T02:54:47.346Z,15.03
2018-05-12T02:57:15.675Z,14.40
2018-05-12T02:59:43.216Z,16.00
2018-05-12T03:02:10.720Z,16.67
2018-05-12T03:04:38.230Z,15.53
2018-05-12T03:07:06.624Z,16.13
2018-05-12T03:09:34.135Z,16.17
2018-05-12T03:12:03.202Z,16.07
2018-05-12T03:14:30.719Z,16.80
2018-05-12T03:16:58.982Z,16.37
2018-05-12T03:19:26.497Z,15.93
2018-05-12T03:21:54.028Z,16.03
2018-05-12T03:24:21.541Z,18.20
2018-05-12T03:26:49.047Z,15.33
2018-05-12T03:29:16.578Z,16.63
2018-05-12T03:31:44.218Z,17.20
2018-05-12T03:34:11.742Z,17.47
2018-05-12T03:36:39.271Z,16.80
2018-05-12T03:39:06.780Z,17.67
2018-05-12T03:41:34.410Z,16.37
2018-05-12T03:44:01.938Z,16.57
2018-05-12T03:46:29.466Z,17.17
2018-05-12T03:48:57.006Z,17.67
2018-05-12T03:51:24.510Z,18.23
2018-05-12T03:53:52.027Z,17.20
2018-05-12T03:56:19.555Z,16.73
2018-05-12T03:58:47.058Z,17.20
2018-05-12T04:01:14.564Z,17.97
2018-05-12T04:03:42.106Z,18.03
2018-05-12T04:06:21.550Z,17.07
2018-05-12T04:09:00.741Z,20.20
2018-05-12T04:11:42.670Z,17.70
2018-05-12T04:14:10.199Z,16.47
2018-05-12T04:16:37.710Z,16.83
2018-05-12T04:19:05.220Z,17.97
2018-05-12T04:21:32.750Z,19.57
2018-05-12T04:24:00.274Z,18.23
2018-05-12T04:26:27.786Z,18.83
2018-05-12T04:28:55.314Z,17.10
2018-05-12T04:31:22.819Z,17.80
2018-05-12T04:33:50.339Z,17.57
2018-05-12T04:36:17.898Z,18.23
2018-05-12T04:38:45.436Z,18.17
2018-05-12T04:41:12.930Z,16.63
2018-05-12T04:43:41.222Z,21.80
2018-05-12T04:46:08.743Z,18.90
2018-05-12T04:48:36.272Z,16.77
2018-05-12T04:51:03.833Z,16.60
2018-05-12T04:53:31.342Z,17.93
2018-05-12T04:55:58.848Z,17.93
2018-05-12T04:58:26.395Z,17.07
2018-05-12T05:00:53.920Z,19.10
2018-05-12T05:03:22.210Z,16.70
2018-05-12T05:05:50.519Z,19.97
2018-05-12T05:08:18.105Z,16.70
2018-05-12T05:10:46.321Z,17.07
2018-05-12T05:13:13.847Z,16.43
2018-05-12T05:15:41.443Z,16.00
2018-05-12T05:18:09.002Z,15.83
2018-05-12T05:20:36.599Z,16.37
2018-05-12T05:23:04.121Z,15.13
2018-05-12T05:25:31.664Z,16.20
2018-05-12T05:27:59.193Z,16.47
2018-05-12T05:30:26.714Z,15.70
2018-05-12T05:32:54.985Z,15.47
2018-05-12T05:35:22.519Z,15.27
2018-05-12T05:37:50.028Z,15.60
2018-05-12T05:40:17.544Z,14.60
2018-05-12T05:42:45.061Z,15.53
2018-05-12T05:45:12.590Z,15.73
2018-05-12T05:47:40.098Z,15.80
2018-05-12T05:50:08.328Z,15.10
2018-05-12T05:52:35.783Z,14.40
2018-05-12T05:55:04.064Z,14.60
2018-05-12T05:57:32.359Z,14.33
2018-05-12T05:59:59.899Z,18.83
2018-05-12T06:02:28.220Z,16.10
2018-05-12T06:04:55.751Z,15.77
2018-05-12T06:07:24.047Z,15.83
2018-05-12T06:09:51.549Z,16.60
2018-05-12T06:12:20.516Z,17.30
2018-05-12T06:14:48.032Z,15.73
2018-05-12T06:17:16.314Z,14.57
2018-05-12T06:19:43.847Z,16.17
2018-05-12T06:22:11.351Z,15.47
2018-05-12T06:24:38.867Z,15.13
2018-05-12T06:27:06.398Z,15.53
2018-05-12T06:29:33.906Z,15.00
2018-05-12T06:32:01.414Z,16.73
2018-05-12T06:34:28.946Z,17.57
2018-05-12T06:36:56.502Z,16.50
2018-05-12T06:39:24.042Z,16.93
2018-05-12T06:41:51.596Z,15.83
2018-05-12T06:44:19.104Z,16.60
2018-05-12T06:46:46.608Z,16.43
2018-05-12T06:49:14.135Z,16.83
2018-05-12T06:51:41.642Z,17.43
2018-05-12T06:54:09.143Z,16.73
2018-05-12T06:56:37.215Z,15.83
2018-05-12T06:59:04.727Z,15.80
2018-05-12T07:01:32.258Z,16.60
2018-05-12T07:03:59.796Z,17.07
2018-05-12T07:06:27.297Z,16.73
2018-05-12T07:08:54.811Z,17.43
2018-05-12T07:11:22.377Z,17.33
2018-05-12T07:13:49.971Z,16.43
2018-05-12T07:16:17.467Z,15.40
2018-05-12T07:18:45.740Z,16.63
2018-05-12T07:21:13.267Z,16.97
2018-05-12T07:23:40.768Z,16.27
2018-05-12T07:26:08.291Z,16.60
2018-05-12T07:28:35.806Z,15.93
2018-05-12T07:31:03.315Z,14.87
2018-05-12T07:33:30.822Z,15.37
2018-05-12T07:35:58.393Z,12.67
2018-05-12T07:38:25.902Z,13.40
2018-05-12T07:40:53.606Z,13.50
2018-05-12T07:43:21.149Z,13.83
2018-05-12T07:45:49.451Z,13.20
2018-05-12T07:48:17.060Z,12.10
2018-05-12T07:50:44.578Z,14.67
2018-05-12T07:53:12.174Z,13.60
2018-05-12T07:55:39.705Z,13.50
2018-05-12T07:58:07.228Z,12.70
2018-05-12T08:00:35.534Z,12.63
2018-05-12T08:03:03.066Z,12.53
2018-05-12T08:05:30.575Z,13.67
2018-05-12T08:07:58.082Z,12.07
2018-05-12T08:10:25.618Z,11.20
2018-05-12T08:12:53.188Z,12.30
2018-05-12T08:15:21.418Z,13.13
2018-05-12T08:17:48.959Z,12.10
2018-05-12T08:20:17.234Z,14.17
2018-05-12T08:22:44.739Z,13.83
2018-05-12T08:25:12.250Z,11.93
2018-05-12T08:27:40.519Z,12.40
2018-05-12T08:30:08.168Z,11.40
2018-05-12T08:32:35.697Z,11.23
2018-05-12T08:35:03.393Z,13.20
2018-05-12T08:37:30.912Z,11.93
2018-05-12T08:39:58.433Z,11.30
2018-05-12T08:42:25.966Z,12.33
2018-05-12T08:44:53.558Z,11.27
2018-05-12T08:47:21.111Z,12.97
2018-05-12T08:49:48.608Z,10.07
2018-05-12T08:52:16.121Z,10.83
2018-05-12T08:54:43.646Z,9.83
2018-05-12T08:57:11.151Z,9.50
2018-05-12T08:59:39.428Z,11.47
2018-05-12T09:02:07.721Z,11.30
2018-05-12T09:04:35.995Z,9.47
2018-05-12T09:07:04.276Z,12.33
2018-05-12T09:09:32.579Z,9.20
2018-05-12T09:12:00.110Z,10.50
2018-05-12T09:14:28.391Z,9.60
2018-05-12T09:16:55.938Z,10.50
2018-05-12T09:19:24.276Z,12.13
2018-05-12T09:21:51.727Z,10.83
2018-05-12T09:24:19.276Z,11.07
2018-05-12T09:26:46.783Z,10.47
2018-05-12T09:29:14.294Z,10.37
2018-05-12T09:31:41.828Z,8.60
2018-05-12T09:34:09.330Z,7.53
2018-05-12T09:36:36.857Z,6.07
2018-05-12T09:39:05.141Z,6.97
2018-05-12T09:41:32.638Z,8.03
2018-05-12T09:44:00.139Z,5.73
2018-05-12T09:46:28.446Z,5.63
2018-05-12T09:48:56.393Z,6.00
2018-05-12T09:51:24.664Z,4.73
2018-05-12T09:53:52.968Z,3.70
2018-05-12T09:56:20.470Z,5.50
2018-05-12T09:58:48.610Z,5.67
2018-05-12T10:01:16.121Z,5.50
2018-05-12T10:03:43.642Z,4.97
2018-05-12T10:06:11.191Z,5.23
2018-05-12T10:08:38.722Z,5.70
2018-05-12T10:11:06.245Z,4.30
2018-05-12T10:13:33.752Z,6.33
2018-05-12T10:16:01.302Z,6.03
2018-05-12T10:18:29.583Z,4.93
2018-05-12T10:20:57.905Z,4.47
2018-05-12T10:23:25.432Z,4.90
2018-05-12T10:25:53.693Z,4.87
2018-05-12T10:28:21.990Z,4.17
2018-05-12T10:30:49.579Z,3.00
2018-05-12T10:33:17.118Z,5.30
2018-05-12T10:35:44.658Z,3.73
2018-05-12T10:38:12.648Z,4.77
2018-05-12T10:40:40.183Z,5.13
2018-05-12T10:43:07.742Z,3.87
2018-05-12T10:45:36.069Z,4.43
2018-05-12T10:48:04.182Z,3.93
2018-05-12T10:50:31.705Z,6.97
2018-05-12T10:52:59.208Z,4.87
2018-05-12T10:55:26.714Z,5.33
2018-05-12T10:57:54.833Z,5.37
2018-05-12T11:00:22.351Z,3.33
2018-05-12T11:02:49.859Z,4.03
2018-05-12T11:05:17.378Z,3.40
2018-05-12T11:07:44.873Z,4.37
2018-05-12T11:10:12.370Z,4.47
2018-05-12T11:12:40.012Z,3.57
2018-05-12T11:15:08.335Z,3.67
2018-05-12T11:17:36.242Z,2.93
2018-05-12T11:20:03.746Z,4.63
2018-05-12T11:22:31.253Z,6.73
2018-05-12T11:24:58.764Z,4.60
2018-05-12T11:27:26.281Z,5.53
2018-05-12T11:29:53.786Z,6.87
2018-05-12T11:32:21.457Z,5.57
2018-05-12T11:34:48.949Z,4.57
2018-05-12T11:37:16.458Z,3.80
2018-05-12T11:39:44.754Z,4.80
2018-05-12T11:42:12.264Z,4.47
2018-05-12T11:44:39.894Z,5.70
2018-05-12T11:47:07.311Z,6.10
2018-05-12T11:49:35.927Z,5.30
2018-05-12T11:52:04.328Z,4.87
2018-05-12T11:54:31.866Z,6.33
2018-05-12T11:56:59.394Z,6.70
2018-05-12T11:59:27.678Z,4.47
2018-05-12T12:01:55.243Z,7.60
2018-05-12T12:04:23.277Z,6.18
2018-05-12T12:06:50.833Z,6.00
2018-05-12T12:09:18.433Z,6.13
2018-05-12T12:11:45.988Z,4.80
2018-05-12T12:14:13.505Z,4.90
2018-05-12T12:16:41.097Z,4.80
2018-05-12T12:19:08.576Z,4.30
2018-05-12T12:21:36.123Z,4.87
2018-05-12T12:24:03.629Z,4.77
2018-05-12T12:26:31.154Z,4.80
2018-05-12T12:28:59.463Z,3.43
2018-05-12T12:31:26.982Z,5.23
2018-05-12T12:33:55.265Z,5.23
2018-05-12T12:36:22.827Z,4.47
2018-05-12T12:38:50.353Z,3.30
2018-05-12T12:41:17.855Z,5.33
2018-05-12T12:43:46.145Z,2.73
2018-05-12T12:46:13.651Z,5.83
2018-05-12T12:48:41.164Z,3.97
2018-05-12T12:51:08.702Z,3.77
2018-05-12T12:53:36.994Z,5.47
2018-05-12T12:56:05.262Z,6.10
2018-05-12T12:58:33.576Z,3.40
2018-05-12T13:01:01.075Z,5.37
2018-05-12T13:03:28.562Z,3.37
2018-05-12T13:05:56.242Z,5.97
2018-05-12T13:08:23.775Z,3.60
2018-05-12T13:10:51.273Z,5.30
2018-05-12T13:13:18.820Z,3.73
2018-05-12T13:15:46.379Z,4.20
2018-05-12T13:18:13.891Z,4.70
2018-05-12T13:20:41.450Z,4.30
2018-05-12T13:23:08.946Z,4.70
2018-05-12T13:25:37.280Z,4.40
2018-05-12T13:28:04.820Z,6.13
2018-05-12T13:30:32.322Z,7.07
2018-05-12T13:32:59.839Z,4.80
2018-05-12T13:35:27.407Z,3.90
2018-05-12T13:37:54.910Z,5.10
2018-05-12T13:40:23.429Z,3.53
2018-05-12T13:42:50.875Z,2.90
2018-05-12T13:45:18.410Z,4.77
2018-05-12T13:47:45.946Z,5.90
2018-05-12T13:50:13.469Z,4.20
2018-05-12T13:52:40.967Z,5.63
2018-05-12T13:55:08.467Z,5.53
2018-05-12T13:57:36.022Z,4.10
2018-05-12T14:00:03.523Z,5.17
2018-05-12T14:02:31.022Z,3.20
2018-05-12T14:04:58.593Z,3.13
2018-05-12T14:07:26.133Z,5.70
2018-05-12T14:09:53.850Z,6.00
2018-05-12T14:12:21.375Z,3.13
2018-05-12T14:14:48.870Z,4.60
2018-05-12T14:17:17.134Z,3.07
2018-05-12T14:19:44.659Z,4.80
2018-05-12T14:22:12.175Z,6.07
2018-05-12T14:24:39.689Z,3.70
2018-05-12T14:27:07.247Z,11.57
2018-05-12T14:29:34.800Z,4.80
2018-05-12T14:32:02.419Z,5.63
2018-05-12T14:34:29.951Z,4.20
2018-05-12T14:36:58.214Z,6.00
2018-05-12T14:39:25.715Z,6.63
2018-05-12T14:41:53.245Z,5.63
2018-05-12T14:44:20.755Z,6.63
2018-05-12T14:46:48.254Z,4.57
2018-05-12T14:49:15.773Z,3.90
2018-05-12T14:51:43.292Z,3.97
2018-05-12T14:54:11.579Z,4.70
2018-05-12T14:56:39.870Z,4.63
2018-05-12T14:59:07.383Z,8.30
2018-05-12T15:01:34.901Z,5.30
2018-05-12T15:04:02.917Z,4.87
2018-05-12T15:06:30.436Z,5.57
2018-05-12T15:08:58.539Z,5.70
2018-05-12T15:11:26.072Z,3.87
2018-05-12T15:13:55.022Z,6.33
2018-05-12T15:16:22.571Z,4.73
2018-05-12T15:18:50.124Z,6.20
2018-05-12T15:21:17.681Z,4.47
2018-05-12T15:23:45.938Z,5.30
2018-05-12T15:26:13.442Z,5.80
2018-05-12T15:28:40.962Z,4.53
2018-05-12T15:31:09.274Z,5.13
2018-05-12T15:33:37.765Z,4.23
2018-05-12T15:36:05.266Z,5.03
2018-05-12T15:38:32.803Z,6.47
2018-05-12T15:41:00.318Z,7.40
2018-05-12T15:43:27.813Z,3.30
2018-05-12T15:45:56.163Z,5.43
2018-05-12T15:48:23.658Z,9.37
2018-05-12T15:50:51.923Z,6.73
2018-05-12T15:53:20.223Z,4.33
2018-05-12T15:55:47.755Z,6.10
2018-05-12T15:58:15.275Z,5.73
2018-05-12T16:00:42.805Z,6.00
2018-05-12T16:03:10.515Z,3.30
2018-05-12T16:05:37.947Z,7.13
2018-05-12T16:08:05.485Z,7.30
2018-05-12T16:10:33.746Z,10.80
2018-05-12T16:13:02.052Z,7.30
2018-05-12T16:15:29.580Z,8.37
2018-05-12T16:17:57.863Z,9.80
2018-05-12T16:20:25.416Z,6.40
2018-05-12T16:22:53.748Z,8.67
2018-05-12T16:25:21.242Z,6.30
2018-05-12T16:27:48.730Z,7.03
2018-05-12T16:30:16.288Z,9.00
2018-05-12T16:32:44.571Z,6.77
2018-05-12T16:35:12.111Z,7.83
2018-05-12T16:37:40.446Z,7.00
2018-05-12T16:40:07.943Z,5.40
2018-05-12T16:42:35.469Z,6.27
2018-05-12T16:45:02.999Z,7.20
2018-05-12T16:47:31.283Z,6.63
2018-05-12T16:50:00.331Z,7.60
2018-05-12T16:52:27.838Z,7.90
2018-05-12T16:54:55.344Z,9.23
2018-05-12T16:57:22.859Z,6.30
2018-05-12T16:59:50.383Z,5.80
2018-05-12T17:02:17.886Z,6.63
2018-05-12T17:04:45.431Z,5.23
2018-05-12T17:07:13.727Z,4.90
2018-05-12T17:09:41.242Z,7.07
2018-05-12T17:12:08.760Z,7.43
2018-05-12T17:14:36.275Z,6.40
2018-05-12T17:17:04.549Z,7.67
2018-05-12T17:19:32.098Z,5.17
2018-05-12T17:21:59.608Z,6.47
2018-05-12T17:24:27.145Z,6.60
2018-05-12T17:26:55.527Z,5.63
2018-05-12T17:29:23.809Z,4.43
2018-05-12T17:31:51.323Z,6.60
2018-05-12T17:34:18.835Z,6.80
2018-05-12T17:36:46.371Z,6.70
2018-05-12T17:39:14.637Z,5.83
2018-05-12T17:41:42.151Z,8.10
2018-05-12T17:44:09.790Z,8.03
2018-05-12T17:46:37.317Z,6.83
2018-05-12T17:49:05.552Z,5.67
2018-05-12T17:51:33.178Z,7.17
2018-05-12T17:54:01.451Z,7.27
2018-05-12T17:56:29.017Z,8.67
2018-05-12T17:58:57.398Z,7.63
2018-05-12T18:01:25.711Z,5.27
2018-05-12T18:03:53.601Z,5.27
2018-05-12T18:06:21.891Z,5.73
2018-05-12T18:08:49.427Z,5.20
2018-05-12T18:11:17.693Z,5.17
2018-05-12T18:13:45.284Z,5.60
2018-05-12T18:16:13.588Z,6.47
2018-05-12T18:18:43.092Z,5.80
2018-05-12T18:21:12.139Z,8.97
2018-05-12T18:23:39.696Z,6.40
2018-05-12T18:26:07.200Z,5.80
2018-05-12T18:28:34.816Z,6.63
2018-05-12T18:31:02.450Z,6.13
2018-05-12T18:33:30.742Z,5.17
2018-05-12T18:35:59.034Z,10.60
2018-05-12T18:38:26.698Z,5.67
2018-05-12T18:40:54.217Z,6.43
2018-05-12T18:43:21.732Z,5.63
2018-05-12T18:45:49.262Z,6.87
2018-05-12T18:48:17.552Z,7.50
2018-05-12T18:50:45.062Z,8.00
2018-05-12T18:53:12.613Z,11.07
2018-05-12T18:55:40.111Z,6.70
2018-05-12T18:58:07.631Z,6.63
2018-05-12T19:00:35.157Z,9.07
2018-05-12T19:03:02.656Z,7.60
2018-05-12T19:05:30.186Z,6.23
2018-05-12T19:07:57.726Z,6.17
2018-05-12T19:10:25.235Z,6.57
2018-05-12T19:12:52.769Z,7.93
2018-05-12T19:15:20.360Z,7.43
2018-05-12T19:17:47.911Z,7.00
2018-05-12T19:20:15.417Z,9.30
2018-05-12T19:22:43.005Z,7.63
2018-05-12T19:25:10.530Z,6.20
2018-05-12T19:27:38.839Z,10.03
2018-05-12T19:30:06.394Z,8.87
2018-05-12T19:32:33.941Z,7.57
2018-05-12T19:35:01.847Z,7.10
2018-05-12T19:37:29.356Z,12.00
2018-05-12T19:39:56.915Z,8.00
2018-05-12T19:42:25.217Z,8.33
2018-05-12T19:44:52.726Z,9.60
2018-05-12T19:47:20.238Z,7.53
2018-05-12T19:49:47.757Z,8.47
2018-05-12T19:52:15.268Z,7.10
2018-05-12T19:54:42.837Z,10.00
2018-05-12T19:57:10.343Z,10.47
2018-05-12T19:59:37.846Z,7.80
2018-05-12T20:02:05.450Z,11.33
2018-05-12T20:04:32.974Z,11.03
2018-05-12T20:07:00.492Z,9.13
2018-05-12T20:09:28.044Z,8.60
2018-05-12T20:11:55.665Z,8.30
2018-05-12T20:14:23.161Z,10.50
2018-05-12T20:16:50.747Z,12.57
2018-05-12T20:19:19.086Z,10.27
2018-05-12T20:21:46.594Z,11.13
2018-05-12T20:24:14.926Z,11.73
2018-05-12T20:26:42.531Z,13.07
2018-05-12T20:29:10.807Z,10.17
2018-05-12T20:31:39.157Z,10.80
2018-05-12T20:34:07.534Z,15.97
2018-05-12T20:36:35.057Z,10.50
2018-05-12T20:39:03.280Z,11.27
2018-05-12T20:41:30.807Z,13.07
2018-05-12T20:43:58.317Z,14.10
2018-05-12T20:46:26.794Z,11.97
2018-05-12T20:48:54.296Z,12.43
2018-05-12T20:51:21.807Z,12.17
2018-05-12T20:53:49.907Z,12.70
2018-05-12T20:56:17.427Z,11.73
2018-05-12T20:58:45.010Z,16.07
2018-05-12T21:01:14.194Z,12.10
2018-05-12T21:03:41.715Z,13.07
2018-05-12T21:06:09.991Z,12.30
2018-05-12T21:08:37.509Z,11.90
2018-05-12T21:11:05.835Z,16.73
2018-05-12T21:13:33.358Z,15.20
2018-05-12T21:16:01.687Z,12.50
2018-05-12T21:18:29.197Z,12.33
2018-05-12T21:20:57.470Z,13.67
2018-05-12T21:23:25.854Z,14.27
2018-05-12T21:25:53.448Z,16.70
2018-05-12T21:28:20.953Z,14.47
2018-05-12T21:30:48.531Z,16.60
2018-05-12T21:33:16.039Z,12.43
2018-05-12T21:35:43.565Z,14.27
2018-05-12T21:38:11.887Z,14.57
2018-05-12T21:40:39.565Z,13.33
2018-05-12T21:43:07.107Z,15.60
2018-05-12T21:45:34.637Z,12.77
2018-05-12T21:48:02.182Z,12.40
2018-05-12T21:50:29.700Z,12.70
2018-05-12T21:52:57.234Z,14.30
2018-05-12T21:55:25.583Z,14.37
2018-05-12T21:57:53.132Z,15.90
2018-05-12T22:00:21.439Z,14.60
2018-05-12T22:02:48.954Z,14.83
2018-05-12T22:05:16.509Z,13.73
2018-05-12T22:07:44.027Z,14.50
2018-05-12T22:10:11.531Z,14.03
2018-05-12T22:12:39.066Z,14.07
2018-05-12T22:15:06.581Z,16.13
2018-05-12T22:17:34.863Z,14.33
2018-05-12T22:20:03.171Z,14.20
2018-05-12T22:22:30.678Z,15.50
2018-05-12T22:24:58.186Z,15.37
2018-05-12T22:27:25.710Z,14.03
2018-05-12T22:29:53.999Z,14.63
2018-05-12T22:32:21.531Z,14.50
2018-05-12T22:34:49.037Z,15.07
2018-05-12T22:37:16.534Z,12.43
2018-05-12T22:39:44.079Z,13.20
2018-05-12T22:42:11.612Z,14.47
2018-05-12T22:44:39.147Z,12.90
2018-05-12T22:47:06.677Z,12.80
2018-05-12T22:49:34.183Z,13.97
2018-05-12T22:52:02.461Z,13.57
2018-05-12T22:54:30.757Z,14.70
2018-05-12T22:56:58.265Z,13.63
2018-05-12T22:59:25.777Z,12.60
2018-05-12T23:01:53.337Z,11.73
2018-05-12T23:04:20.841Z,12.70
2018-05-12T23:06:48.353Z,12.87
2018-05-12T23:09:15.890Z,12.90
2018-05-12T23:11:44.170Z,13.30
2018-05-12T23:14:11.675Z,15.13
2018-05-12T23:16:39.211Z,13.10
2018-05-12T23:19:07.474Z,13.70
2018-05-12T23:21:35.767Z,14.40
2018-05-12T23:24:03.343Z,13.23
2018-05-12T23:26:30.856Z,14.00
2018-05-12T23:28:58.370Z,13.70
2018-05-12T23:31:25.896Z,12.73
2018-05-12T23:33:53.422Z,12.40
2018-05-12T23:36:20.927Z,11.77
2018-05-12T23:38:48.451Z,12.87
2018-05-12T23:41:15.962Z,11.53
2018-05-12T23:43:44.241Z,13.33
2018-05-12T23:46:11.771Z,14.77
2018-05-12T23:48:40.103Z,12.83
2018-05-12T23:51:07.607Z,12.50
2018-05-12T23:53:35.919Z,14.23
2018-05-12T23:56:03.446Z,14.93
2018-05-12T23:58:31.722Z,15.33
